Time;durP1;ratioP1;P1;durP2;ratioP2;P2;SDS_P1;SDS_P2;PMS_P1;PMS_P2;Temp;Humidity;BMP_temperature;BMP_pressure;BME280_temperature;BME280_humidity;BME280_pressure;Samples;Min_cycle;Max_cycle;Signal;HPM_P1;HPM_P2
2023/05/29 00:00:07;;;;;;;12.60;2.55;;;9.80;99.90;;;;;;5070542;28;20044;-62
2023/05/29 00:02:34;;;;;;;12.07;2.50;;;9.80;99.90;;;;;;5071549;28;20044;-61
2023/05/29 00:05:02;;;;;;;13.30;2.60;;;9.80;99.90;;;;;;5070649;28;20032;-62
2023/05/29 00:07:30;;;;;;;11.75;2.33;;;9.70;99.90;;;;;;5069668;28;20057;-63
2023/05/29 00:09:55;;;;;;;10.77;2.17;;;9.70;99.90;;;;;;5053570;28;20037;-62
2023/05/29 00:12:22;;;;;;;16.58;3.00;;;9.70;99.90;;;;;;5071511;28;20041;-61
2023/05/29 00:14:48;;;;;;;17.05;2.55;;;9.60;99.90;;;;;;5070699;28;20044;-61
2023/05/29 00:17:15;;;;;;;18.17;3.22;;;9.60;99.90;;;;;;5069920;28;20040;-61
2023/05/29 00:19:41;;;;;;;17.80;2.97;;;9.60;99.90;;;;;;5071832;28;20423;-61
2023/05/29 00:22:07;;;;;;;12.55;2.97;;;9.50;99.90;;;;;;5071018;28;20127;-63
2023/05/29 00:24:33;;;;;;;13.57;3.00;;;9.50;99.90;;;;;;5073236;28;20108;-60
2023/05/29 00:26:58;;;;;;;13.63;2.80;;;9.50;99.90;;;;;;5069443;28;20047;-63
2023/05/29 00:29:24;;;;;;;13.32;2.47;;;9.50;99.90;;;;;;5070244;28;20387;-62
2023/05/29 00:31:53;;;;;;;13.85;2.90;;;9.40;99.90;;;;;;5071704;28;20040;-62
2023/05/29 00:34:27;;;;;;;10.98;2.38;;;9.50;99.90;;;;;;5071758;28;20048;-63
2023/05/29 00:36:55;;;;;;;14.00;2.88;;;9.40;99.90;;;;;;5072024;28;20048;-62
2023/05/29 00:39:21;;;;;;;15.27;2.90;;;9.40;99.90;;;;;;5069851;28;20052;-63
2023/05/29 00:41:50;;;;;;;11.80;2.30;;;9.40;99.90;;;;;;5070995;28;20036;-64
2023/05/29 00:44:21;;;;;;;13.25;2.13;;;9.40;99.90;;;;;;5070701;28;20103;-63
2023/05/29 00:46:52;;;;;;;11.68;2.70;;;9.40;99.90;;;;;;5070984;28;20048;-60
2023/05/29 00:49:19;;;;;;;12.90;2.23;;;9.30;99.90;;;;;;5052832;28;20064;-61
2023/05/29 00:51:45;;;;;;;15.05;2.92;;;9.40;99.90;;;;;;5068397;28;20131;-63
2023/05/29 00:54:21;;;;;;;15.23;2.75;;;9.30;99.90;;;;;;5070109;28;20048;-62
2023/05/29 00:56:47;;;;;;;12.50;2.20;;;9.30;99.90;;;;;;5067944;28;20056;-62
2023/05/29 00:59:14;;;;;;;18.60;2.53;;;9.30;99.90;;;;;;5069285;28;20432;-63
2023/05/29 01:01:40;;;;;;;15.57;2.92;;;9.30;99.90;;;;;;5068101;28;20044;-61
2023/05/29 01:04:06;;;;;;;11.70;2.42;;;9.30;99.90;;;;;;5070477;28;20063;-62
2023/05/29 01:06:35;;;;;;;14.43;2.38;;;9.30;99.90;;;;;;5068042;28;20033;-63
2023/05/29 01:09:03;;;;;;;10.45;2.30;;;9.20;99.90;;;;;;5068134;28;20044;-61
2023/05/29 01:11:41;;;;;;;16.58;3.05;;;9.20;99.90;;;;;;5070424;28;20510;-60
2023/05/29 01:14:14;;;;;;;11.85;2.40;;;9.20;99.90;;;;;;5068122;28;20403;-59
2023/05/29 01:16:54;;;;;;;17.50;2.28;;;9.20;99.90;;;;;;5069544;28;20044;-60
2023/05/29 01:19:40;;;;;;;15.93;3.47;;;9.20;99.90;;;;;;5067819;28;20051;-60
2023/05/29 01:22:29;;;;;;;11.73;2.08;;;9.10;99.90;;;;;;5066497;28;20470;-62
2023/05/29 01:25:18;;;;;;;16.45;2.60;;;9.10;99.90;;;;;;5069301;28;20081;-62
2023/05/29 01:27:47;;;;;;;12.18;1.90;;;9.10;99.90;;;;;;5069133;28;20036;-62
2023/05/29 01:30:14;;;;;;;11.00;1.75;;;9.00;99.90;;;;;;5070329;28;20040;-63
2023/05/29 01:32:41;;;;;;;10.00;2.20;;;9.00;99.90;;;;;;5068786;28;20044;-60
2023/05/29 01:35:08;;;;;;;12.18;2.28;;;9.00;99.90;;;;;;5070257;28;20186;-61
2023/05/29 01:37:33;;;;;;;10.85;2.70;;;9.00;99.90;;;;;;5068668;28;20372;-63
2023/05/29 01:39:59;;;;;;;12.02;2.22;;;9.00;99.90;;;;;;5070059;28;20040;-59
2023/05/29 01:42:27;;;;;;;13.45;2.42;;;9.00;99.90;;;;;;5070083;28;20388;-61
2023/05/29 01:44:54;;;;;;;12.88;2.40;;;9.00;99.90;;;;;;5069878;28;20048;-62
2023/05/29 01:47:20;;;;;;;12.48;2.60;;;9.00;99.90;;;;;;5069900;28;20060;-62
2023/05/29 01:49:48;;;;;;;14.77;3.00;;;9.00;99.90;;;;;;5069720;28;20044;-62
2023/05/29 01:52:14;;;;;;;12.43;2.50;;;9.00;99.90;;;;;;5069167;28;20048;-63
2023/05/29 01:54:40;;;;;;;11.95;1.95;;;8.90;99.90;;;;;;5069630;28;20032;-60
2023/05/29 01:57:06;;;;;;;14.98;2.13;;;8.90;99.90;;;;;;5070216;28;20045;-59
2023/05/29 01:59:33;;;;;;;15.77;2.78;;;8.90;99.90;;;;;;5068791;28;20380;-62
2023/05/29 02:02:08;;;;;;;14.65;2.63;;;8.90;99.90;;;;;;5068132;28;20494;-60
2023/05/29 02:04:33;;;;;;;13.95;2.35;;;8.90;99.90;;;;;;5069712;28;20029;-61
2023/05/29 02:06:59;;;;;;;15.13;2.55;;;8.90;99.90;;;;;;5068390;28;20043;-62
2023/05/29 02:09:25;;;;;;;11.73;2.35;;;8.90;99.90;;;;;;5069885;28;20060;-62
2023/05/29 02:11:51;;;;;;;12.45;2.35;;;8.90;99.90;;;;;;5069576;28;20047;-63
2023/05/29 02:14:17;;;;;;;13.30;2.00;;;8.80;99.90;;;;;;5069794;28;20041;-61
2023/05/29 02:16:43;;;;;;;14.50;2.30;;;8.80;99.90;;;;;;5069336;28;20094;-59
2023/05/29 02:19:10;;;;;;;9.82;2.30;;;8.80;99.90;;;;;;5069874;28;20115;-60
2023/05/29 02:21:40;;;;;;;12.43;2.10;;;8.70;99.90;;;;;;5050090;28;20044;-62
2023/05/29 02:24:07;;;;;;;11.80;2.30;;;8.70;99.90;;;;;;5069981;28;20037;-63
2023/05/29 02:26:32;;;;;;;11.98;2.22;;;8.60;99.90;;;;;;5070276;28;20040;-62
2023/05/29 02:28:58;;;;;;;15.15;2.38;;;8.60;99.90;;;;;;5068523;28;20047;-60
2023/05/29 02:31:24;;;;;;;10.98;2.22;;;8.60;99.90;;;;;;5068390;28;20037;-61
2023/05/29 02:33:50;;;;;;;10.73;2.20;;;8.50;99.90;;;;;;5068461;28;20053;-62
2023/05/29 02:36:16;;;;;;;12.75;2.25;;;8.50;99.90;;;;;;5068504;28;20052;-59
2023/05/29 02:38:41;;;;;;;9.63;1.80;;;8.40;99.90;;;;;;5071067;28;20044;-62
2023/05/29 02:41:07;;;;;;;12.90;2.10;;;8.40;99.90;;;;;;5069297;28;20048;-59
2023/05/29 02:43:33;;;;;;;13.00;2.42;;;8.40;99.90;;;;;;5067113;28;20112;-63
2023/05/29 02:45:59;;;;;;;10.13;2.40;;;8.30;99.90;;;;;;5050351;28;20068;-61
2023/05/29 02:48:25;;;;;;;14.88;2.38;;;8.30;99.90;;;;;;5068036;28;20090;-60
2023/05/29 02:50:51;;;;;;;13.48;2.13;;;8.30;99.90;;;;;;5069190;28;20036;-62
2023/05/29 02:53:17;;;;;;;9.70;2.33;;;8.30;99.90;;;;;;5069234;28;20111;-61
2023/05/29 02:55:43;;;;;;;11.57;2.10;;;8.20;99.90;;;;;;5069491;28;20033;-60
2023/05/29 02:58:11;;;;;;;12.93;2.88;;;8.20;99.90;;;;;;5068492;28;20426;-62
2023/05/29 03:00:37;;;;;;;10.00;2.20;;;8.20;99.90;;;;;;5069024;28;20032;-60
2023/05/29 03:03:03;;;;;;;12.52;2.22;;;8.20;99.90;;;;;;5067590;28;20059;-63
2023/05/29 03:05:28;;;;;;;9.20;1.80;;;8.10;99.90;;;;;;5069809;28;20116;-60
2023/05/29 03:07:54;;;;;;;10.90;1.70;;;8.10;99.90;;;;;;5069949;28;20028;-62
2023/05/29 03:10:20;;;;;;;12.57;2.15;;;8.10;99.90;;;;;;5070707;28;20056;-61
2023/05/29 03:12:46;;;;;;;17.95;2.67;;;8.10;99.90;;;;;;5070137;28;20499;-61
2023/05/29 03:15:12;;;;;;;17.48;2.70;;;8.00;99.90;;;;;;5072833;28;20040;-61
2023/05/29 03:17:38;;;;;;;13.30;2.00;;;8.00;99.90;;;;;;5071430;28;20036;-61
2023/05/29 03:20:07;;;;;;;13.82;2.63;;;8.00;99.90;;;;;;5072410;28;20048;-61
2023/05/29 03:22:35;;;;;;;14.40;2.42;;;8.00;99.90;;;;;;5073252;28;20047;-60
2023/05/29 03:25:02;;;;;;;10.93;2.60;;;7.90;99.90;;;;;;5071642;28;20047;-61
2023/05/29 03:27:29;;;;;;;11.23;2.38;;;7.90;99.90;;;;;;5073406;28;20035;-61
2023/05/29 03:29:55;;;;;;;13.38;2.58;;;7.90;99.90;;;;;;5072676;28;20052;-62
2023/05/29 03:32:20;;;;;;;9.52;2.08;;;7.90;99.90;;;;;;5071459;28;20036;-62
2023/05/29 03:34:47;;;;;;;13.88;2.50;;;7.80;99.90;;;;;;5054536;28;20040;-60
2023/05/29 03:37:13;;;;;;;12.48;2.78;;;7.80;99.90;;;;;;5072861;28;20406;-60
2023/05/29 03:39:39;;;;;;;15.10;2.55;;;7.80;99.90;;;;;;5055188;28;20040;-61
2023/05/29 03:42:05;;;;;;;15.85;2.40;;;7.80;99.90;;;;;;5071415;28;20045;-63
2023/05/29 03:44:30;;;;;;;9.95;1.90;;;7.80;99.90;;;;;;5071555;28;20509;-63
2023/05/29 03:46:56;;;;;;;12.40;2.40;;;7.80;99.90;;;;;;5072003;28;20044;-61
2023/05/29 03:49:22;;;;;;;13.45;1.90;;;7.80;99.90;;;;;;5071930;28;20077;-60
2023/05/29 03:51:47;;;;;;;11.80;2.63;;;7.80;99.90;;;;;;5072167;28;20490;-62
2023/05/29 03:54:13;;;;;;;13.07;3.25;;;7.80;99.90;;;;;;5070905;28;20040;-60
2023/05/29 03:56:39;;;;;;;13.98;2.55;;;7.80;99.90;;;;;;5072098;28;20039;-60
2023/05/29 03:59:04;;;;;;;11.90;2.13;;;7.80;99.90;;;;;;5070628;28;20414;-61
2023/05/29 04:01:30;;;;;;;13.57;2.80;;;7.80;99.90;;;;;;5070998;28;20127;-62
2023/05/29 04:03:56;;;;;;;12.02;2.80;;;7.80;99.90;;;;;;5070303;28;20377;-60
2023/05/29 04:06:22;;;;;;;18.40;2.55;;;7.80;99.90;;;;;;5071613;28;20574;-60
2023/05/29 04:08:48;;;;;;;17.70;3.28;;;7.90;99.90;;;;;;5069398;28;20059;-65
2023/05/29 04:11:14;;;;;;;13.93;2.70;;;7.90;99.90;;;;;;5070471;28;20044;-61
2023/05/29 04:13:40;;;;;;;16.20;2.58;;;7.90;99.90;;;;;;5070719;28;20086;-60
2023/05/29 04:16:06;;;;;;;13.85;3.15;;;7.90;99.90;;;;;;5069525;28;20454;-63
2023/05/29 04:18:32;;;;;;;12.20;2.88;;;7.90;99.90;;;;;;5073137;28;20047;-61
2023/05/29 04:20:58;;;;;;;9.30;2.20;;;8.00;99.90;;;;;;5070456;28;20491;-61
2023/05/29 04:23:24;;;;;;;10.75;2.40;;;8.00;99.90;;;;;;5070916;28;20067;-60
2023/05/29 04:25:52;;;;;;;14.93;3.13;;;8.00;99.90;;;;;;5070864;28;20545;-60
2023/05/29 04:28:21;;;;;;;14.80;2.45;;;8.10;99.90;;;;;;5071210;28;20032;-61
2023/05/29 04:30:47;;;;;;;12.73;2.20;;;8.10;99.90;;;;;;5070259;28;20076;-62
2023/05/29 04:33:14;;;;;;;11.73;2.65;;;8.10;99.90;;;;;;5071783;28;20120;-64
2023/05/29 04:35:42;;;;;;;11.50;2.50;;;8.20;99.90;;;;;;5072087;28;20040;-60
2023/05/29 04:38:09;;;;;;;14.70;2.45;;;8.20;99.90;;;;;;5071155;28;20040;-61
2023/05/29 04:40:36;;;;;;;16.17;3.15;;;8.30;99.90;;;;;;5070828;28;20476;-60
2023/05/29 04:43:02;;;;;;;11.45;2.83;;;8.30;99.90;;;;;;5070926;28;20041;-60
2023/05/29 04:45:27;;;;;;;12.57;2.58;;;8.40;99.90;;;;;;5070702;28;20053;-62
2023/05/29 04:47:55;;;;;;;13.10;2.47;;;8.50;99.90;;;;;;5070257;28;20622;-61
2023/05/29 04:50:23;;;;;;;15.80;2.53;;;8.50;99.90;;;;;;5069556;28;20040;-62
2023/05/29 04:52:48;;;;;;;12.80;2.60;;;8.60;99.90;;;;;;5055458;28;20410;-61
2023/05/29 04:55:14;;;;;;;14.88;3.00;;;8.70;99.90;;;;;;5070705;28;20040;-60
2023/05/29 04:57:40;;;;;;;18.13;3.38;;;8.80;99.90;;;;;;5070421;28;20086;-62
2023/05/29 05:00:08;;;;;;;13.75;2.50;;;8.90;99.90;;;;;;5069473;28;20059;-60
2023/05/29 05:02:34;;;;;;;17.38;2.85;;;8.90;99.90;;;;;;5069233;28;20138;-61
2023/05/29 05:04:59;;;;;;;17.85;2.25;;;9.00;99.90;;;;;;5070925;28;20123;-61
2023/05/29 05:07:25;;;;;;;12.68;2.53;;;9.10;99.90;;;;;;5053704;28;20536;-61
2023/05/29 05:09:51;;;;;;;14.95;2.40;;;9.20;99.90;;;;;;5072046;28;20024;-61
2023/05/29 05:12:16;;;;;;;17.08;3.20;;;9.30;99.90;;;;;;5073215;28;20047;-61
2023/05/29 05:14:42;;;;;;;10.93;2.45;;;9.40;99.90;;;;;;5072275;28;20076;-59
2023/05/29 05:17:08;;;;;;;12.98;3.30;;;9.50;99.90;;;;;;5069221;28;20079;-64
2023/05/29 05:19:33;;;;;;;15.52;3.08;;;9.60;99.90;;;;;;5069990;28;20435;-61
2023/05/29 05:21:59;;;;;;;11.23;2.47;;;9.60;99.90;;;;;;5070288;28;20033;-63
2023/05/29 05:24:24;;;;;;;13.40;2.45;;;9.80;99.90;;;;;;5068270;28;20047;-62
2023/05/29 05:26:50;;;;;;;12.73;2.53;;;9.90;99.90;;;;;;5069176;28;20040;-63
2023/05/29 05:29:16;;;;;;;8.10;1.88;;;10.00;99.90;;;;;;5069801;28;20067;-64
2023/05/29 05:31:45;;;;;;;12.38;2.25;;;10.10;99.90;;;;;;5069701;28;20043;-65
2023/05/29 05:34:14;;;;;;;9.60;2.45;;;10.30;99.90;;;;;;5052553;28;20131;-63
2023/05/29 05:36:39;;;;;;;11.25;2.15;;;10.40;99.90;;;;;;5068430;28;20051;-61
2023/05/29 05:39:06;;;;;;;14.68;2.70;;;10.50;99.90;;;;;;5068738;28;20040;-61
2023/05/29 05:41:31;;;;;;;7.85;2.28;;;10.60;99.90;;;;;;5069089;28;20041;-61
2023/05/29 05:43:57;;;;;;;13.00;2.42;;;10.70;99.90;;;;;;5070257;28;20398;-64
2023/05/29 05:46:22;;;;;;;13.43;2.33;;;10.80;99.90;;;;;;5067216;28;20514;-60
2023/05/29 05:48:48;;;;;;;10.85;2.05;;;10.90;99.90;;;;;;5069200;28;20379;-63
2023/05/29 05:51:14;;;;;;;11.75;2.65;;;11.00;99.90;;;;;;5069505;28;20102;-62
2023/05/29 05:53:39;;;;;;;10.43;2.67;;;11.20;99.90;;;;;;5068107;28;20040;-60
2023/05/29 05:56:05;;;;;;;18.88;2.40;;;11.30;99.90;;;;;;5067584;28;20046;-59
2023/05/29 05:58:31;;;;;;;11.90;2.30;;;11.50;99.90;;;;;;5066359;28;20047;-62
2023/05/29 06:00:57;;;;;;;13.60;2.58;;;11.60;99.90;;;;;;5066912;28;20131;-60
2023/05/29 06:03:23;;;;;;;17.83;3.72;;;11.80;99.90;;;;;;5070457;28;20044;-61
2023/05/29 06:05:50;;;;;;;12.15;2.40;;;11.90;99.90;;;;;;5068201;28;20036;-62
2023/05/29 06:08:15;;;;;;;31.73;7.05;;;12.10;99.90;;;;;;5068092;28;20042;-60
2023/05/29 06:10:41;;;;;;;14.38;2.50;;;12.30;99.90;;;;;;5069268;28;20033;-60
2023/05/29 06:13:07;;;;;;;14.32;2.70;;;12.40;99.90;;;;;;5067727;28;20043;-61
2023/05/29 06:15:32;;;;;;;14.13;3.10;;;12.60;99.90;;;;;;5068573;28;20398;-61
2023/05/29 06:17:58;;;;;;;11.65;2.67;;;12.70;99.90;;;;;;5068325;28;20047;-62
2023/05/29 06:20:24;;;;;;;12.77;2.67;;;12.80;99.90;;;;;;5068517;28;20430;-62
2023/05/29 06:22:50;;;;;;;21.63;3.58;;;12.70;99.90;;;;;;5068824;28;20037;-61
2023/05/29 06:25:19;;;;;;;12.15;2.60;;;12.80;99.90;;;;;;5069647;28;20043;-62
2023/05/29 06:27:45;;;;;;;14.57;2.63;;;12.80;99.90;;;;;;5067653;28;20036;-63
2023/05/29 06:30:12;;;;;;;9.88;2.47;;;12.90;99.90;;;;;;5069787;28;20381;-63
2023/05/29 06:32:38;;;;;;;11.38;2.13;;;13.00;99.90;;;;;;5069196;28;20028;-64
2023/05/29 06:35:06;;;;;;;12.48;2.65;;;12.90;99.90;;;;;;5069130;28;20036;-61
2023/05/29 06:37:31;;;;;;;10.75;3.15;;;13.00;99.90;;;;;;5068272;28;20211;-62
2023/05/29 06:39:57;;;;;;;12.00;2.17;;;12.90;99.90;;;;;;5068797;28;20121;-61
2023/05/29 06:42:23;;;;;;;12.93;2.08;;;12.80;99.90;;;;;;5064284;28;20048;-63
2023/05/29 06:44:48;;;;;;;14.57;2.95;;;12.80;99.90;;;;;;5066899;28;20048;-64
2023/05/29 06:47:14;;;;;;;13.30;2.70;;;12.80;99.90;;;;;;5067372;28;20087;-61
2023/05/29 06:49:40;;;;;;;14.35;3.15;;;12.90;99.90;;;;;;5054356;28;20123;-63
2023/05/29 06:52:05;;;;;;;11.18;2.40;;;12.80;99.90;;;;;;5072676;28;20086;-60
2023/05/29 06:54:31;;;;;;;8.65;2.35;;;12.80;99.90;;;;;;5075498;28;20036;-61
2023/05/29 06:56:57;;;;;;;11.32;2.40;;;12.80;99.90;;;;;;5071204;28;20032;-62
2023/05/29 06:59:22;;;;;;;14.68;2.70;;;12.80;99.90;;;;;;5070961;28;20458;-62
2023/05/29 07:01:48;;;;;;;13.48;2.63;;;12.90;99.90;;;;;;5068290;28;20372;-62
2023/05/29 07:04:14;;;;;;;13.85;2.25;;;13.20;99.90;;;;;;5070083;28;20040;-62
2023/05/29 07:06:40;;;;;;;20.65;3.72;;;13.30;99.90;;;;;;5071085;28;20047;-63
2023/05/29 07:09:05;;;;;;;12.75;2.40;;;13.40;99.90;;;;;;5076151;28;20032;-62
2023/05/29 07:11:31;;;;;;;13.75;2.53;;;13.50;99.90;;;;;;5072520;28;20131;-61
2023/05/29 07:13:56;;;;;;;13.10;2.72;;;13.40;99.90;;;;;;5072375;28;20051;-62
2023/05/29 07:16:22;;;;;;;15.70;2.88;;;13.30;99.90;;;;;;5070165;28;20045;-60
2023/05/29 07:18:48;;;;;;;15.15;2.45;;;13.30;99.90;;;;;;5069889;28;20036;-60
2023/05/29 07:21:13;;;;;;;211.77;22.67;;;13.30;99.90;;;;;;5071734;28;20131;-61
2023/05/29 07:23:39;;;;;;;14.32;2.85;;;13.40;99.90;;;;;;5075007;28;20123;-60
2023/05/29 07:26:05;;;;;;;14.93;2.90;;;13.40;99.90;;;;;;5072282;28;20475;-60
2023/05/29 07:28:31;;;;;;;10.98;2.60;;;13.50;99.90;;;;;;5072632;28;20031;-61
2023/05/29 07:30:57;;;;;;;12.57;2.83;;;13.60;99.90;;;;;;5055054;28;20135;-60
2023/05/29 07:33:22;;;;;;;13.07;2.40;;;13.70;99.90;;;;;;5071798;28;20125;-60
2023/05/29 07:35:48;;;;;;;15.55;2.50;;;13.80;99.90;;;;;;5071410;28;20510;-60
2023/05/29 07:38:14;;;;;;;13.15;2.55;;;14.00;99.90;;;;;;5069494;28;20037;-62
2023/05/29 07:40:39;;;;;;;14.32;3.15;;;14.10;99.90;;;;;;5073564;28;20037;-63
2023/05/29 07:43:05;;;;;;;14.23;2.85;;;14.20;99.90;;;;;;5068917;28;20055;-64
2023/05/29 07:45:31;;;;;;;14.20;2.53;;;14.30;99.90;;;;;;5071894;28;20531;-62
2023/05/29 07:47:56;;;;;;;13.35;2.75;;;14.40;99.90;;;;;;5068110;28;20072;-61
2023/05/29 07:50:22;;;;;;;13.98;2.70;;;14.60;99.90;;;;;;5070930;28;20047;-62
2023/05/29 07:52:48;;;;;;;18.50;3.15;;;14.60;99.90;;;;;;5070937;28;20119;-64
2023/05/29 07:55:14;;;;;;;14.52;2.70;;;14.60;99.90;;;;;;5070605;28;20052;-63
2023/05/29 07:57:39;;;;;;;11.30;2.65;;;14.80;99.90;;;;;;5071856;28;20037;-61
2023/05/29 08:00:07;;;;;;;11.98;2.72;;;14.80;99.90;;;;;;5069331;28;20071;-62
2023/05/29 08:02:33;;;;;;;17.52;2.90;;;14.80;99.90;;;;;;5070178;28;20110;-62
2023/05/29 08:04:59;;;;;;;13.05;2.90;;;15.00;99.90;;;;;;5070869;28;20032;-61
2023/05/29 08:07:26;;;;;;;13.77;3.00;;;15.10;99.90;;;;;;5071595;28;20033;-62
2023/05/29 08:09:53;;;;;;;14.52;3.17;;;15.20;99.90;;;;;;5071584;28;20545;-61
2023/05/29 08:12:18;;;;;;;16.88;3.00;;;15.40;99.90;;;;;;5071524;28;20127;-63
2023/05/29 08:14:44;;;;;;;15.52;3.42;;;15.50;99.90;;;;;;5071549;28;20124;-61
2023/05/29 08:17:10;;;;;;;11.98;3.03;;;15.60;99.90;;;;;;5070043;28;20048;-62
2023/05/29 08:19:36;;;;;;;15.43;3.38;;;15.70;99.90;;;;;;5069882;28;20111;-63
2023/05/29 08:22:01;;;;;;;13.60;3.53;;;15.90;99.90;;;;;;5071365;28;20049;-63
2023/05/29 08:24:27;;;;;;;16.08;3.00;;;15.80;99.30;;;;;;5070003;28;20048;-62
2023/05/29 08:26:53;;;;;;;13.48;3.28;;;16.00;99.90;;;;;;5070177;28;20032;-61
2023/05/29 08:29:19;;;;;;;10.65;2.85;;;16.10;99.60;;;;;;5070568;28;20037;-62
2023/05/29 08:31:45;;;;;;;12.23;2.75;;;16.30;99.60;;;;;;5070168;28;20066;-63
2023/05/29 08:34:11;;;;;;;16.60;3.83;;;16.50;99.40;;;;;;5071316;28;20040;-61
2023/05/29 08:36:37;;;;;;;12.85;3.08;;;16.60;99.00;;;;;;5070082;28;20528;-62
2023/05/29 08:39:03;;;;;;;11.85;2.58;;;16.70;99.10;;;;;;5069163;28;20044;-63
2023/05/29 08:41:57;;;;;;;15.00;2.80;;;16.80;98.50;;;;;;5070796;28;20178;-63
2023/05/29 08:44:23;;;;;;;14.30;3.40;;;16.50;96.90;;;;;;5070039;28;20530;-61
2023/05/29 08:46:55;;;;;;;12.40;2.97;;;16.40;97.70;;;;;;5070961;28;20086;-62
2023/05/29 08:49:22;;;;;;;13.98;2.50;;;16.50;97.90;;;;;;5070904;28;20040;-63
2023/05/29 08:51:52;;;;;;;18.58;3.63;;;16.40;98.40;;;;;;5069244;28;20921;-63
2023/05/29 08:54:18;;;;;;;16.77;3.60;;;16.70;98.60;;;;;;5071678;28;20116;-62
2023/05/29 08:56:43;;;;;;;14.52;2.95;;;16.80;98.20;;;;;;5070788;28;20524;-65
2023/05/29 08:59:10;;;;;;;12.30;3.17;;;16.80;97.40;;;;;;5069746;28;20064;-62
2023/05/29 09:01:38;;;;;;;12.57;3.05;;;16.80;97.40;;;;;;5069233;28;20458;-61
2023/05/29 09:04:04;;;;;;;11.02;3.08;;;16.90;97.30;;;;;;5071537;28;20171;-60
2023/05/29 09:06:30;;;;;;;15.75;2.80;;;16.80;96.70;;;;;;5069238;28;20127;-63
2023/05/29 09:08:57;;;;;;;9.60;2.60;;;16.80;97.10;;;;;;5070989;28;20025;-62
2023/05/29 09:11:26;;;;;;;12.43;3.08;;;16.70;97.40;;;;;;5071344;28;20170;-64
2023/05/29 09:13:53;;;;;;;14.18;2.78;;;16.60;96.60;;;;;;5070444;28;20040;-64
2023/05/29 09:16:19;;;;;;;16.70;2.85;;;16.30;95.60;;;;;;5069068;28;20048;-66
2023/05/29 09:18:46;;;;;;;11.57;3.22;;;16.00;96.30;;;;;;5070683;28;20059;-62
2023/05/29 09:21:26;;;;;;;15.65;3.15;;;16.10;97.30;;;;;;5070802;28;20048;-63
2023/05/29 09:23:54;;;;;;;12.93;3.05;;;16.20;97.70;;;;;;5069559;28;20067;-63
2023/05/29 09:26:23;;;;;;;15.85;2.88;;;16.20;97.60;;;;;;5069015;28;20044;-63
2023/05/29 09:28:49;;;;;;;14.40;3.15;;;16.30;97.70;;;;;;5068963;28;20052;-63
2023/05/29 09:31:17;;;;;;;16.05;3.92;;;16.20;97.20;;;;;;5070364;28;20122;-67
2023/05/29 09:33:50;;;;;;;13.00;2.75;;;16.20;97.30;;;;;;5068686;28;20118;-61
2023/05/29 09:36:25;;;;;;;12.48;2.80;;;16.30;97.30;;;;;;5069146;28;20055;-63
2023/05/29 09:38:51;;;;;;;14.95;3.20;;;16.40;97.60;;;;;;5069996;28;20493;-62
2023/05/29 09:41:24;;;;;;;9.13;2.70;;;16.50;97.20;;;;;;5069158;28;20032;-61
2023/05/29 09:43:50;;;;;;;13.77;2.88;;;16.50;96.80;;;;;;5068676;28;20518;-64
2023/05/29 09:46:20;;;;;;;10.57;2.67;;;16.50;96.70;;;;;;5069470;28;20057;-63
2023/05/29 09:48:47;;;;;;;14.65;3.00;;;16.70;97.40;;;;;;5069281;28;20048;-62
2023/05/29 09:51:21;;;;;;;12.23;2.70;;;16.90;96.70;;;;;;5070318;28;20094;-62
2023/05/29 09:53:48;;;;;;;13.27;3.30;;;16.90;96.30;;;;;;5068624;28;20572;-62
2023/05/29 09:56:17;;;;;;;16.00;3.17;;;16.80;96.30;;;;;;5069598;28;20472;-62
2023/05/29 09:58:47;;;;;;;12.70;2.53;;;16.80;96.30;;;;;;5070513;28;20120;-63
2023/05/29 10:01:16;;;;;;;13.48;3.47;;;16.90;97.20;;;;;;5069294;28;20063;-62
2023/05/29 10:03:45;;;;;;;13.88;3.05;;;16.80;96.40;;;;;;5069401;28;20044;-63
2023/05/29 10:06:15;;;;;;;12.50;3.33;;;16.90;96.50;;;;;;5070965;28;20041;-62
2023/05/29 10:08:49;;;;;;;12.88;3.10;;;17.10;96.90;;;;;;5069522;28;20036;-62
2023/05/29 10:11:23;;;;;;;14.68;3.65;;;17.30;96.80;;;;;;5068808;28;20400;-63
2023/05/29 10:13:51;;;;;;;14.35;3.38;;;17.50;96.50;;;;;;5068337;28;20040;-63
2023/05/29 10:16:23;;;;;;;14.43;4.38;;;17.40;96.10;;;;;;5070226;28;20033;-61
2023/05/29 10:18:57;;;;;;;12.90;3.05;;;17.30;95.70;;;;;;5070097;28;20040;-65
2023/05/29 10:21:26;;;;;;;13.13;3.15;;;17.40;95.00;;;;;;5068747;28;20113;-64
2023/05/29 10:23:54;;;;;;;12.13;2.90;;;17.50;95.90;;;;;;5054594;28;20136;-61
2023/05/29 10:26:29;;;;;;;15.50;3.63;;;17.50;94.80;;;;;;5074383;28;20102;-64
2023/05/29 10:29:13;;;;;;;15.75;2.97;;;17.50;94.30;;;;;;5074961;28;20044;-61
2023/05/29 10:32:09;;;;;;;13.73;3.08;;;17.50;94.70;;;;;;5072261;28;20045;-62
2023/05/29 10:34:45;;;;;;;10.32;2.85;;;17.80;95.00;;;;;;5073854;28;20047;-61
2023/05/29 10:37:37;;;;;;;13.43;2.88;;;17.80;93.90;;;;;;5072541;28;20492;-64
2023/05/29 10:40:12;;;;;;;11.93;2.60;;;17.80;92.80;;;;;;5071408;28;20362;-61
2023/05/29 10:42:49;;;;;;;13.23;2.47;;;17.90;93.60;;;;;;5075145;28;20506;-61
2023/05/29 10:45:32;;;;;;;12.68;2.75;;;18.00;93.50;;;;;;5055784;28;20047;-62
2023/05/29 10:48:08;;;;;;;12.38;2.50;;;18.30;93.10;;;;;;5072390;28;20483;-61
2023/05/29 10:50:43;;;;;;;13.02;3.20;;;18.40;92.90;;;;;;5071975;28;20048;-61
2023/05/29 10:53:10;;;;;;;12.82;2.90;;;18.30;93.30;;;;;;5071702;28;20127;-64
2023/05/29 10:55:37;;;;;;;16.02;3.63;;;18.60;93.50;;;;;;5072021;28;20486;-64
2023/05/29 10:58:07;;;;;;;13.18;2.67;;;18.80;93.40;;;;;;5071596;28;20040;-60
2023/05/29 11:00:33;;;;;;;15.80;3.10;;;18.80;92.60;;;;;;5073291;28;20041;-61
2023/05/29 11:03:03;;;;;;;12.93;2.90;;;18.60;92.50;;;;;;5073619;28;20116;-61
2023/05/29 11:05:29;;;;;;;12.55;3.28;;;18.40;92.50;;;;;;5071542;28;20041;-62
2023/05/29 11:08:00;;;;;;;12.38;3.25;;;18.00;92.30;;;;;;5071974;28;20040;-61
2023/05/29 11:10:45;;;;;;;14.80;3.53;;;17.90;92.60;;;;;;5055256;28;20043;-62
2023/05/29 11:13:34;;;;;;;13.80;2.65;;;18.00;93.90;;;;;;5071283;28;20095;-63
2023/05/29 11:16:14;;;;;;;11.88;2.80;;;18.10;92.80;;;;;;5069840;28;20040;-60
2023/05/29 11:18:45;;;;;;;13.82;3.08;;;18.20;91.70;;;;;;5073590;28;20394;-62
2023/05/29 11:21:30;;;;;;;9.60;2.13;;;18.00;92.20;;;;;;5071736;28;20395;-61
2023/05/29 11:23:58;;;;;;;14.38;2.95;;;18.00;92.70;;;;;;5073162;28;20426;-62
2023/05/29 11:26:26;;;;;;;9.65;3.10;;;18.10;92.90;;;;;;5071468;28;20080;-62
2023/05/29 11:28:52;;;;;;;11.25;2.60;;;18.20;91.90;;;;;;5073632;28;20475;-63
2023/05/29 11:31:20;;;;;;;8.52;2.78;;;18.30;91.60;;;;;;5071679;28;20390;-63
2023/05/29 11:33:50;;;;;;;11.68;3.20;;;18.20;92.30;;;;;;5071968;28;20036;-63
2023/05/29 11:36:19;;;;;;;13.75;3.22;;;18.30;92.00;;;;;;5071263;28;20487;-61
2023/05/29 11:38:45;;;;;;;13.25;2.75;;;18.40;92.60;;;;;;5072983;28;20032;-62
2023/05/29 11:41:11;;;;;;;12.45;3.15;;;18.30;91.90;;;;;;5072877;28;20082;-64
2023/05/29 11:43:36;;;;;;;12.45;3.33;;;18.20;92.00;;;;;;5071463;28;20046;-62
2023/05/29 11:46:02;;;;;;;12.30;2.88;;;18.50;92.10;;;;;;5070788;28;20090;-62
2023/05/29 11:48:28;;;;;;;17.40;3.20;;;18.40;92.20;;;;;;5072082;28;20048;-62
2023/05/29 11:50:54;;;;;;;11.02;3.45;;;18.60;92.60;;;;;;5072581;28;20029;-61
2023/05/29 11:53:19;;;;;;;12.52;3.10;;;18.50;92.20;;;;;;5071335;28;20068;-65
2023/05/29 11:55:45;;;;;;;10.57;3.15;;;18.60;92.10;;;;;;5070440;28;20352;-62
2023/05/29 11:58:11;;;;;;;13.63;2.55;;;18.60;91.90;;;;;;5071777;28;20048;-61
2023/05/29 12:00:38;;;;;;;13.70;3.15;;;18.50;91.90;;;;;;5070706;28;20047;-65
2023/05/29 12:03:06;;;;;;;13.55;2.88;;;18.30;92.60;;;;;;5072330;28;20111;-62
2023/05/29 12:05:33;;;;;;;10.40;2.40;;;18.10;92.20;;;;;;5071333;28;20033;-61
2023/05/29 12:08:01;;;;;;;11.07;2.83;;;18.00;92.90;;;;;;5070473;28;20044;-64
2023/05/29 12:10:27;;;;;;;13.25;3.08;;;17.70;92.30;;;;;;5071996;28;20515;-62
2023/05/29 12:12:54;;;;;;;13.10;2.65;;;17.50;92.40;;;;;;5071642;28;20075;-62
2023/05/29 12:15:21;;;;;;;16.00;2.80;;;17.50;93.10;;;;;;5071640;28;20041;-60
2023/05/29 12:17:49;;;;;;;14.27;2.58;;;17.40;93.00;;;;;;5071504;28;20483;-62
2023/05/29 12:20:16;;;;;;;11.73;2.50;;;17.50;93.20;;;;;;5070280;28;20041;-63
2023/05/29 12:22:44;;;;;;;15.73;3.00;;;17.50;93.00;;;;;;5071688;28;20394;-61
2023/05/29 12:25:11;;;;;;;9.50;2.65;;;17.50;93.00;;;;;;5071318;28;20032;-63
2023/05/29 12:27:42;;;;;;;14.55;2.95;;;17.60;93.40;;;;;;5071327;28;20032;-63
2023/05/29 12:30:21;;;;;;;15.85;2.88;;;17.70;93.40;;;;;;5070070;28;20032;-63
2023/05/29 12:32:48;;;;;;;15.35;2.67;;;17.80;93.40;;;;;;5070384;28;20040;-63
2023/05/29 12:35:17;;;;;;;11.23;2.40;;;17.90;93.40;;;;;;5071230;28;20043;-63
2023/05/29 12:37:49;;;;;;;15.18;3.15;;;17.90;93.30;;;;;;5069853;28;20365;-64
2023/05/29 12:40:20;;;;;;;16.25;2.85;;;18.00;93.00;;;;;;5071145;28;20112;-63
2023/05/29 12:42:47;;;;;;;10.00;2.97;;;18.00;92.80;;;;;;5069318;28;20049;-63